sensor_id;sensor_type;location;lat;lon;timestamp;P1;durP1;ratioP1;P2;durP2;ratioP2
42066;SDS011;27734;47.028;28.820;2022-07-29T00:00:14;7.43;;;5.00;;
42066;SDS011;27734;47.028;28.820;2022-07-29T00:03:03;11.87;;;5.13;;
42066;SDS011;27734;47.028;28.820;2022-07-29T00:05:35;8.67;;;4.83;;
42066;SDS011;27734;47.028;28.820;2022-07-29T00:08:07;9.87;;;4.93;;
42066;SDS011;27734;47.028;28.820;2022-07-29T00:10:39;7.80;;;4.57;;
42066;SDS011;27734;47.028;28.820;2022-07-29T00:13:11;7.77;;;4.30;;
42066;SDS011;27734;47.028;28.820;2022-07-29T00:15:43;8.40;;;4.80;;
42066;SDS011;27734;47.028;28.820;2022-07-29T00:18:14;10.45;;;4.50;;
42066;SDS011;27734;47.028;28.820;2022-07-29T00:20:46;9.70;;;4.77;;
42066;SDS011;27734;47.028;28.820;2022-07-29T00:23:18;8.57;;;4.63;;
42066;SDS011;27734;47.028;28.820;2022-07-29T00:25:49;7.70;;;4.57;;
42066;SDS011;27734;47.028;28.820;2022-07-29T00:28:24;7.93;;;4.53;;
42066;SDS011;27734;47.028;28.820;2022-07-29T00:30:56;5.93;;;4.23;;
42066;SDS011;27734;47.028;28.820;2022-07-29T00:33:29;5.27;;;4.10;;
42066;SDS011;27734;47.028;28.820;2022-07-29T00:36:42;9.83;;;4.53;;
42066;SDS011;27734;47.028;28.820;2022-07-29T00:39:21;5.07;;;4.13;;
42066;SDS011;27734;47.028;28.820;2022-07-29T00:41:52;7.93;;;4.23;;
42066;SDS011;27734;47.028;28.820;2022-07-29T00:44:24;8.30;;;4.70;;
42066;SDS011;27734;47.028;28.820;2022-07-29T00:46:58;7.63;;;4.37;;
42066;SDS011;27734;47.028;28.820;2022-07-29T00:49:42;10.00;;;4.50;;
42066;SDS011;27734;47.028;28.820;2022-07-29T00:52:13;8.03;;;4.47;;
42066;SDS011;27734;47.028;28.820;2022-07-29T00:54:55;6.10;;;4.20;;
42066;SDS011;27734;47.028;28.820;2022-07-29T00:57:32;7.80;;;4.70;;
42066;SDS011;27734;47.028;28.820;2022-07-29T01:00:08;7.33;;;4.63;;
42066;SDS011;27734;47.028;28.820;2022-07-29T01:02:53;6.60;;;4.40;;
42066;SDS011;27734;47.028;28.820;2022-07-29T01:05:30;10.05;;;5.05;;
42066;SDS011;27734;47.028;28.820;2022-07-29T01:08:02;6.13;;;4.37;;
42066;SDS011;27734;47.028;28.820;2022-07-29T01:10:34;7.73;;;4.33;;
42066;SDS011;27734;47.028;28.820;2022-07-29T01:13:09;7.23;;;4.40;;
42066;SDS011;27734;47.028;28.820;2022-07-29T01:15:45;6.40;;;4.47;;
42066;SDS011;27734;47.028;28.820;2022-07-29T01:18:22;6.93;;;4.80;;
42066;SDS011;27734;47.028;28.820;2022-07-29T01:21:05;7.80;;;4.50;;
42066;SDS011;27734;47.028;28.820;2022-07-29T01:26:47;8.97;;;4.60;;
42066;SDS011;27734;47.028;28.820;2022-07-29T01:29:23;6.83;;;4.40;;
42066;SDS011;27734;47.028;28.820;2022-07-29T01:32:01;8.77;;;4.70;;
42066;SDS011;27734;47.028;28.820;2022-07-29T01:34:41;7.40;;;4.63;;
42066;SDS011;27734;47.028;28.820;2022-07-29T01:37:19;6.67;;;4.20;;
42066;SDS011;27734;47.028;28.820;2022-07-29T01:39:55;6.53;;;4.10;;
42066;SDS011;27734;47.028;28.820;2022-07-29T01:42:32;6.40;;;4.40;;
42066;SDS011;27734;47.028;28.820;2022-07-29T01:45:10;7.80;;;4.50;;
42066;SDS011;27734;47.028;28.820;2022-07-29T01:47:54;8.57;;;4.40;;
42066;SDS011;27734;47.028;28.820;2022-07-29T01:50:32;7.87;;;4.63;;
42066;SDS011;27734;47.028;28.820;2022-07-29T01:53:09;10.30;;;4.57;;
42066;SDS011;27734;47.028;28.820;2022-07-29T01:55:44;8.10;;;4.67;;
42066;SDS011;27734;47.028;28.820;2022-07-29T01:58:18;8.93;;;5.00;;
42066;SDS011;27734;47.028;28.820;2022-07-29T02:00:51;7.75;;;4.30;;
42066;SDS011;27734;47.028;28.820;2022-07-29T02:03:23;9.10;;;4.73;;
42066;SDS011;27734;47.028;28.820;2022-07-29T02:05:56;7.50;;;4.53;;
42066;SDS011;27734;47.028;28.820;2022-07-29T02:08:32;6.63;;;4.50;;
42066;SDS011;27734;47.028;28.820;2022-07-29T02:11:05;7.37;;;4.47;;
42066;SDS011;27734;47.028;28.820;2022-07-29T02:13:38;8.20;;;5.00;;
42066;SDS011;27734;47.028;28.820;2022-07-29T02:18:44;5.40;;;3.90;;
42066;SDS011;27734;47.028;28.820;2022-07-29T02:21:19;12.47;;;4.97;;
42066;SDS011;27734;47.028;28.820;2022-07-29T02:23:53;8.10;;;4.40;;
42066;SDS011;27734;47.028;28.820;2022-07-29T02:26:29;9.47;;;4.30;;
42066;SDS011;27734;47.028;28.820;2022-07-29T02:29:03;8.10;;;4.10;;
42066;SDS011;27734;47.028;28.820;2022-07-29T02:31:41;7.40;;;4.13;;
42066;SDS011;27734;47.028;28.820;2022-07-29T02:34:18;21.87;;;6.50;;
42066;SDS011;27734;47.028;28.820;2022-07-29T02:39:21;16.27;;;4.80;;
42066;SDS011;27734;47.028;28.820;2022-07-29T02:44:29;7.93;;;4.20;;
42066;SDS011;27734;47.028;28.820;2022-07-29T02:47:04;6.90;;;4.17;;
42066;SDS011;27734;47.028;28.820;2022-07-29T02:49:42;8.15;;;4.10;;
42066;SDS011;27734;47.028;28.820;2022-07-29T02:52:26;10.23;;;4.37;;
42066;SDS011;27734;47.028;28.820;2022-07-29T02:55:01;9.57;;;3.93;;
42066;SDS011;27734;47.028;28.820;2022-07-29T02:57:41;7.43;;;4.07;;
42066;SDS011;27734;47.028;28.820;2022-07-29T03:00:16;9.23;;;3.90;;
42066;SDS011;27734;47.028;28.820;2022-07-29T03:02:50;6.43;;;4.03;;
42066;SDS011;27734;47.028;28.820;2022-07-29T03:05:24;7.23;;;4.10;;
42066;SDS011;27734;47.028;28.820;2022-07-29T03:07:57;6.70;;;3.77;;
42066;SDS011;27734;47.028;28.820;2022-07-29T03:10:31;7.30;;;3.70;;
42066;SDS011;27734;47.028;28.820;2022-07-29T03:13:03;6.33;;;3.60;;
42066;SDS011;27734;47.028;28.820;2022-07-29T03:15:37;6.20;;;3.80;;
42066;SDS011;27734;47.028;28.820;2022-07-29T03:18:09;6.13;;;3.50;;
42066;SDS011;27734;47.028;28.820;2022-07-29T03:20:41;7.13;;;3.50;;
42066;SDS011;27734;47.028;28.820;2022-07-29T03:23:14;9.97;;;3.67;;
42066;SDS011;27734;47.028;28.820;2022-07-29T03:25:50;4.83;;;3.57;;
42066;SDS011;27734;47.028;28.820;2022-07-29T03:28:23;6.60;;;3.40;;
42066;SDS011;27734;47.028;28.820;2022-07-29T03:30:55;7.60;;;3.70;;
42066;SDS011;27734;47.028;28.820;2022-07-29T03:33:27;7.07;;;3.40;;
42066;SDS011;27734;47.028;28.820;2022-07-29T03:35:58;11.20;;;4.50;;
42066;SDS011;27734;47.028;28.820;2022-07-29T03:38:31;12.80;;;3.60;;
42066;SDS011;27734;47.028;28.820;2022-07-29T03:41:07;6.95;;;3.50;;
42066;SDS011;27734;47.028;28.820;2022-07-29T03:43:41;9.30;;;3.63;;
42066;SDS011;27734;47.028;28.820;2022-07-29T03:46:15;6.67;;;3.83;;
42066;SDS011;27734;47.028;28.820;2022-07-29T03:48:50;8.70;;;3.70;;
42066;SDS011;27734;47.028;28.820;2022-07-29T03:51:27;7.37;;;3.60;;
42066;SDS011;27734;47.028;28.820;2022-07-29T03:54:00;6.30;;;3.40;;
42066;SDS011;27734;47.028;28.820;2022-07-29T03:56:32;9.13;;;3.40;;
42066;SDS011;27734;47.028;28.820;2022-07-29T03:59:09;6.07;;;3.70;;
42066;SDS011;27734;47.028;28.820;2022-07-29T04:01:42;7.37;;;3.80;;
42066;SDS011;27734;47.028;28.820;2022-07-29T04:04:15;13.85;;;4.67;;
42066;SDS011;27734;47.028;28.820;2022-07-29T04:06:47;9.15;;;4.10;;
42066;SDS011;27734;47.028;28.820;2022-07-29T04:09:18;9.97;;;4.40;;
42066;SDS011;27734;47.028;28.820;2022-07-29T04:11:50;7.23;;;3.87;;
42066;SDS011;27734;47.028;28.820;2022-07-29T04:14:23;9.30;;;3.70;;
42066;SDS011;27734;47.028;28.820;2022-07-29T04:16:55;5.33;;;3.47;;
42066;SDS011;27734;47.028;28.820;2022-07-29T04:19:28;7.70;;;3.87;;
42066;SDS011;27734;47.028;28.820;2022-07-29T04:22:06;8.73;;;3.80;;
42066;SDS011;27734;47.028;28.820;2022-07-29T04:24:45;7.97;;;3.90;;
42066;SDS011;27734;47.028;28.820;2022-07-29T04:27:31;7.97;;;4.00;;
42066;SDS011;27734;47.028;28.820;2022-07-29T04:30:23;11.43;;;4.20;;
42066;SDS011;27734;47.028;28.820;2022-07-29T04:32:57;11.00;;;4.43;;
42066;SDS011;27734;47.028;28.820;2022-07-29T04:35:30;8.70;;;4.10;;
42066;SDS011;27734;47.028;28.820;2022-07-29T04:38:06;9.17;;;3.80;;
42066;SDS011;27734;47.028;28.820;2022-07-29T04:40:49;7.77;;;4.17;;
42066;SDS011;27734;47.028;28.820;2022-07-29T04:43:28;10.35;;;4.60;;
42066;SDS011;27734;47.028;28.820;2022-07-29T04:46:07;10.03;;;4.53;;
42066;SDS011;27734;47.028;28.820;2022-07-29T04:48:54;8.70;;;4.70;;
42066;SDS011;27734;47.028;28.820;2022-07-29T04:51:38;7.67;;;4.50;;
42066;SDS011;27734;47.028;28.820;2022-07-29T04:56:52;8.57;;;4.30;;
42066;SDS011;27734;47.028;28.820;2022-07-29T04:59:23;9.43;;;4.20;;
42066;SDS011;27734;47.028;28.820;2022-07-29T05:01:55;13.17;;;5.63;;
42066;SDS011;27734;47.028;28.820;2022-07-29T05:04:36;9.57;;;5.10;;
42066;SDS011;27734;47.028;28.820;2022-07-29T05:07:29;9.37;;;4.93;;
42066;SDS011;27734;47.028;28.820;2022-07-29T05:10:05;8.77;;;4.90;;
42066;SDS011;27734;47.028;28.820;2022-07-29T05:12:53;8.47;;;4.90;;
42066;SDS011;27734;47.028;28.820;2022-07-29T05:15:28;8.37;;;4.83;;
42066;SDS011;27734;47.028;28.820;2022-07-29T05:18:09;10.77;;;4.93;;
42066;SDS011;27734;47.028;28.820;2022-07-29T05:20:55;10.90;;;4.83;;
42066;SDS011;27734;47.028;28.820;2022-07-29T05:23:37;13.57;;;4.90;;
42066;SDS011;27734;47.028;28.820;2022-07-29T05:26:20;11.95;;;4.83;;
42066;SDS011;27734;47.028;28.820;2022-07-29T05:29:03;12.03;;;4.40;;
42066;SDS011;27734;47.028;28.820;2022-07-29T05:31:43;9.37;;;4.10;;
42066;SDS011;27734;47.028;28.820;2022-07-29T05:34:23;11.37;;;4.07;;
42066;SDS011;27734;47.028;28.820;2022-07-29T05:37:07;8.20;;;4.10;;
42066;SDS011;27734;47.028;28.820;2022-07-29T05:39:48;8.20;;;3.90;;
42066;SDS011;27734;47.028;28.820;2022-07-29T05:42:19;12.25;;;4.37;;
42066;SDS011;27734;47.028;28.820;2022-07-29T05:44:51;15.03;;;4.90;;
42066;SDS011;27734;47.028;28.820;2022-07-29T05:47:28;14.23;;;5.10;;
42066;SDS011;27734;47.028;28.820;2022-07-29T05:53:32;10.93;;;4.07;;
42066;SDS011;27734;47.028;28.820;2022-07-29T05:56:47;11.93;;;4.50;;
42066;SDS011;27734;47.028;28.820;2022-07-29T05:59:39;11.67;;;4.70;;
42066;SDS011;27734;47.028;28.820;2022-07-29T06:05:06;14.90;;;5.00;;
42066;SDS011;27734;47.028;28.820;2022-07-29T06:08:06;11.30;;;4.90;;
42066;SDS011;27734;47.028;28.820;2022-07-29T06:10:46;14.17;;;5.40;;
42066;SDS011;27734;47.028;28.820;2022-07-29T06:16:10;16.93;;;6.57;;
42066;SDS011;27734;47.028;28.820;2022-07-29T06:18:51;16.87;;;5.23;;
42066;SDS011;27734;47.028;28.820;2022-07-29T06:24:51;10.80;;;5.00;;
42066;SDS011;27734;47.028;28.820;2022-07-29T06:31:17;12.90;;;5.63;;
42066;SDS011;27734;47.028;28.820;2022-07-29T06:34:45;15.37;;;5.80;;
42066;SDS011;27734;47.028;28.820;2022-07-29T06:40:28;15.60;;;6.10;;
42066;SDS011;27734;47.028;28.820;2022-07-29T06:43:38;14.73;;;6.40;;
42066;SDS011;27734;47.028;28.820;2022-07-29T06:46:17;13.70;;;6.17;;
42066;SDS011;27734;47.028;28.820;2022-07-29T06:51:59;15.80;;;6.70;;
42066;SDS011;27734;47.028;28.820;2022-07-29T06:55:14;15.30;;;7.27;;
42066;SDS011;27734;47.028;28.820;2022-07-29T06:58:13;19.10;;;7.40;;
42066;SDS011;27734;47.028;28.820;2022-07-29T07:07:10;20.43;;;7.83;;
42066;SDS011;27734;47.028;28.820;2022-07-29T07:13:41;16.53;;;7.33;;
42066;SDS011;27734;47.028;28.820;2022-07-29T07:17:11;14.20;;;6.93;;
42066;SDS011;27734;47.028;28.820;2022-07-29T07:42:40;16.30;;;6.90;;
42066;SDS011;27734;47.028;28.820;2022-07-29T07:46:33;14.23;;;6.13;;
42066;SDS011;27734;47.028;28.820;2022-07-29T07:49:48;13.53;;;6.60;;
42066;SDS011;27734;47.028;28.820;2022-07-29T07:53:24;19.13;;;7.50;;
42066;SDS011;27734;47.028;28.820;2022-07-29T07:56:44;16.03;;;6.37;;
42066;SDS011;27734;47.028;28.820;2022-07-29T08:13:40;12.63;;;5.00;;
42066;SDS011;27734;47.028;28.820;2022-07-29T08:16:15;12.50;;;5.27;;
42066;SDS011;27734;47.028;28.820;2022-07-29T08:19:14;11.53;;;4.60;;
42066;SDS011;27734;47.028;28.820;2022-07-29T08:21:49;11.90;;;4.97;;
42066;SDS011;27734;47.028;28.820;2022-07-29T08:34:12;15.50;;;7.17;;
42066;SDS011;27734;47.028;28.820;2022-07-29T08:43:03;17.20;;;7.47;;
42066;SDS011;27734;47.028;28.820;2022-07-29T08:45:52;13.20;;;7.20;;
42066;SDS011;27734;47.028;28.820;2022-07-29T08:48:38;15.57;;;7.80;;
42066;SDS011;27734;47.028;28.820;2022-07-29T08:51:20;18.80;;;7.87;;
42066;SDS011;27734;47.028;28.820;2022-07-29T08:54:05;12.43;;;7.10;;
42066;SDS011;27734;47.028;28.820;2022-07-29T08:56:52;12.50;;;6.67;;
42066;SDS011;27734;47.028;28.820;2022-07-29T08:59:27;12.87;;;6.70;;
42066;SDS011;27734;47.028;28.820;2022-07-29T09:02:09;15.20;;;6.90;;
42066;SDS011;27734;47.028;28.820;2022-07-29T09:04:48;11.80;;;6.30;;
42066;SDS011;27734;47.028;28.820;2022-07-29T09:07:19;15.87;;;6.50;;
42066;SDS011;27734;47.028;28.820;2022-07-29T09:09:57;13.83;;;7.73;;
42066;SDS011;27734;47.028;28.820;2022-07-29T09:12:34;14.73;;;7.03;;
42066;SDS011;27734;47.028;28.820;2022-07-29T09:15:05;15.60;;;7.73;;
42066;SDS011;27734;47.028;28.820;2022-07-29T09:17:49;14.17;;;7.20;;
42066;SDS011;27734;47.028;28.820;2022-07-29T09:30:06;15.20;;;7.50;;
42066;SDS011;27734;47.028;28.820;2022-07-29T09:33:02;15.37;;;6.93;;
42066;SDS011;27734;47.028;28.820;2022-07-29T09:36:09;14.97;;;6.77;;
42066;SDS011;27734;47.028;28.820;2022-07-29T09:39:07;13.67;;;6.23;;
42066;SDS011;27734;47.028;28.820;2022-07-29T09:41:50;10.70;;;5.37;;
42066;SDS011;27734;47.028;28.820;2022-07-29T09:44:51;12.70;;;5.83;;
42066;SDS011;27734;47.028;28.820;2022-07-29T09:54:42;10.60;;;5.17;;
42066;SDS011;27734;47.028;28.820;2022-07-29T09:57:27;12.37;;;5.30;;
42066;SDS011;27734;47.028;28.820;2022-07-29T10:00:03;10.18;;;5.17;;
42066;SDS011;27734;47.028;28.820;2022-07-29T10:02:50;10.60;;;5.47;;
42066;SDS011;27734;47.028;28.820;2022-07-29T10:05:38;10.70;;;5.80;;
42066;SDS011;27734;47.028;28.820;2022-07-29T10:08:25;11.97;;;5.53;;
42066;SDS011;27734;47.028;28.820;2022-07-29T10:11:11;12.10;;;6.00;;
42066;SDS011;27734;47.028;28.820;2022-07-29T10:13:55;11.73;;;5.73;;
42066;SDS011;27734;47.028;28.820;2022-07-29T10:16:45;12.87;;;6.17;;
42066;SDS011;27734;47.028;28.820;2022-07-29T10:19:21;12.07;;;5.70;;
42066;SDS011;27734;47.028;28.820;2022-07-29T10:21:52;12.10;;;5.93;;
42066;SDS011;27734;47.028;28.820;2022-07-29T10:24:32;10.37;;;6.23;;
42066;SDS011;27734;47.028;28.820;2022-07-29T10:27:06;17.35;;;6.03;;
42066;SDS011;27734;47.028;28.820;2022-07-29T10:29:40;13.63;;;6.03;;
42066;SDS011;27734;47.028;28.820;2022-07-29T10:35:20;12.07;;;6.10;;
42066;SDS011;27734;47.028;28.820;2022-07-29T10:38:10;10.93;;;5.97;;
42066;SDS011;27734;47.028;28.820;2022-07-29T10:44:24;9.13;;;5.80;;
42066;SDS011;27734;47.028;28.820;2022-07-29T10:47:02;13.03;;;6.27;;
42066;SDS011;27734;47.028;28.820;2022-07-29T10:50:08;13.30;;;6.17;;
42066;SDS011;27734;47.028;28.820;2022-07-29T10:52:57;15.60;;;6.43;;
42066;SDS011;27734;47.028;28.820;2022-07-29T10:55:40;12.07;;;6.10;;
42066;SDS011;27734;47.028;28.820;2022-07-29T10:58:18;11.80;;;6.20;;
42066;SDS011;27734;47.028;28.820;2022-07-29T11:04:02;14.27;;;6.00;;
42066;SDS011;27734;47.028;28.820;2022-07-29T11:10:29;11.30;;;6.67;;
42066;SDS011;27734;47.028;28.820;2022-07-29T11:26:39;8.60;;;6.00;;
42066;SDS011;27734;47.028;28.820;2022-07-29T11:33:46;11.53;;;5.93;;
42066;SDS011;27734;47.028;28.820;2022-07-29T11:40:14;12.20;;;6.33;;
42066;SDS011;27734;47.028;28.820;2022-07-29T11:50:59;14.97;;;7.37;;
42066;SDS011;27734;47.028;28.820;2022-07-29T11:54:15;16.03;;;7.67;;
42066;SDS011;27734;47.028;28.820;2022-07-29T11:57:03;17.40;;;8.30;;
42066;SDS011;27734;47.028;28.820;2022-07-29T11:59:45;13.55;;;8.45;;
42066;SDS011;27734;47.028;28.820;2022-07-29T12:02:52;15.17;;;8.17;;
42066;SDS011;27734;47.028;28.820;2022-07-29T12:08:52;14.45;;;8.65;;
42066;SDS011;27734;47.028;28.820;2022-07-29T12:11:30;16.10;;;9.05;;
42066;SDS011;27734;47.028;28.820;2022-07-29T12:14:07;17.43;;;9.47;;
42066;SDS011;27734;47.028;28.820;2022-07-29T12:17:06;17.73;;;8.57;;
42066;SDS011;27734;47.028;28.820;2022-07-29T12:19:56;14.23;;;8.20;;
42066;SDS011;27734;47.028;28.820;2022-07-29T12:25:46;15.57;;;8.20;;
42066;SDS011;27734;47.028;28.820;2022-07-29T12:28:36;17.00;;;8.90;;
42066;SDS011;27734;47.028;28.820;2022-07-29T12:33:56;15.33;;;8.97;;
42066;SDS011;27734;47.028;28.820;2022-07-29T12:36:43;17.33;;;9.27;;
42066;SDS011;27734;47.028;28.820;2022-07-29T12:39:42;19.27;;;9.83;;
42066;SDS011;27734;47.028;28.820;2022-07-29T12:45:45;14.93;;;8.43;;
42066;SDS011;27734;47.028;28.820;2022-07-29T12:55:08;14.17;;;8.57;;
42066;SDS011;27734;47.028;28.820;2022-07-29T12:58:13;14.53;;;8.63;;
42066;SDS011;27734;47.028;28.820;2022-07-29T13:01:35;10.83;;;6.70;;
42066;SDS011;27734;47.028;28.820;2022-07-29T13:04:34;13.37;;;6.90;;
42066;SDS011;27734;47.028;28.820;2022-07-29T13:10:52;11.37;;;5.50;;
42066;SDS011;27734;47.028;28.820;2022-07-29T13:17:42;10.20;;;5.67;;
42066;SDS011;27734;47.028;28.820;2022-07-29T13:23:31;11.37;;;5.77;;
42066;SDS011;27734;47.028;28.820;2022-07-29T13:32:41;11.57;;;6.40;;
42066;SDS011;27734;47.028;28.820;2022-07-29T13:38:44;13.17;;;7.60;;
42066;SDS011;27734;47.028;28.820;2022-07-29T13:41:18;17.67;;;8.30;;
42066;SDS011;27734;47.028;28.820;2022-07-29T13:43:57;17.57;;;10.47;;
42066;SDS011;27734;47.028;28.820;2022-07-29T13:46:39;20.63;;;10.97;;
42066;SDS011;27734;47.028;28.820;2022-07-29T13:49:23;18.92;;;10.78;;
42066;SDS011;27734;47.028;28.820;2022-07-29T13:52:08;18.47;;;11.00;;
42066;SDS011;27734;47.028;28.820;2022-07-29T13:54:48;16.90;;;10.00;;
42066;SDS011;27734;47.028;28.820;2022-07-29T13:57:27;18.20;;;10.50;;
42066;SDS011;27734;47.028;28.820;2022-07-29T14:00:13;18.17;;;10.80;;
42066;SDS011;27734;47.028;28.820;2022-07-29T14:02:46;17.63;;;9.83;;
42066;SDS011;27734;47.028;28.820;2022-07-29T14:05:16;18.80;;;10.73;;
42066;SDS011;27734;47.028;28.820;2022-07-29T14:07:49;17.77;;;8.38;;
42066;SDS011;27734;47.028;28.820;2022-07-29T14:10:21;16.30;;;8.10;;
42066;SDS011;27734;47.028;28.820;2022-07-29T14:12:52;21.27;;;9.30;;
42066;SDS011;27734;47.028;28.820;2022-07-29T14:15:28;16.80;;;7.83;;
42066;SDS011;27734;47.028;28.820;2022-07-29T14:17:58;15.97;;;8.27;;
42066;SDS011;27734;47.028;28.820;2022-07-29T14:20:29;17.45;;;7.85;;
42066;SDS011;27734;47.028;28.820;2022-07-29T14:23:01;16.43;;;7.97;;
42066;SDS011;27734;47.028;28.820;2022-07-29T14:25:36;14.70;;;7.47;;
42066;SDS011;27734;47.028;28.820;2022-07-29T14:28:21;14.33;;;7.77;;
42066;SDS011;27734;47.028;28.820;2022-07-29T14:30:50;17.17;;;7.37;;
42066;SDS011;27734;47.028;28.820;2022-07-29T14:33:21;15.60;;;8.13;;
42066;SDS011;27734;47.028;28.820;2022-07-29T14:35:53;14.97;;;8.07;;
42066;SDS011;27734;47.028;28.820;2022-07-29T14:38:22;15.10;;;7.60;;
42066;SDS011;27734;47.028;28.820;2022-07-29T14:40:51;20.50;;;8.20;;
42066;SDS011;27734;47.028;28.820;2022-07-29T14:43:20;12.73;;;7.00;;
42066;SDS011;27734;47.028;28.820;2022-07-29T14:45:49;16.80;;;6.63;;
42066;SDS011;27734;47.028;28.820;2022-07-29T14:48:18;13.00;;;6.20;;
42066;SDS011;27734;47.028;28.820;2022-07-29T14:50:48;12.67;;;7.97;;
42066;SDS011;27734;47.028;28.820;2022-07-29T14:53:17;15.90;;;7.30;;
42066;SDS011;27734;47.028;28.820;2022-07-29T14:55:46;17.00;;;9.47;;
42066;SDS011;27734;47.028;28.820;2022-07-29T14:58:16;14.97;;;9.10;;
42066;SDS011;27734;47.028;28.820;2022-07-29T15:00:46;20.03;;;9.50;;
42066;SDS011;27734;47.028;28.820;2022-07-29T15:03:15;17.57;;;8.53;;
42066;SDS011;27734;47.028;28.820;2022-07-29T15:05:45;18.23;;;8.30;;
42066;SDS011;27734;47.028;28.820;2022-07-29T15:08:14;15.20;;;7.83;;
42066;SDS011;27734;47.028;28.820;2022-07-29T15:10:43;19.93;;;8.80;;
42066;SDS011;27734;47.028;28.820;2022-07-29T15:13:12;16.23;;;8.53;;
42066;SDS011;27734;47.028;28.820;2022-07-29T15:15:42;17.97;;;9.17;;
42066;SDS011;27734;47.028;28.820;2022-07-29T15:18:12;22.83;;;9.23;;
42066;SDS011;27734;47.028;28.820;2022-07-29T15:20:43;16.30;;;8.80;;
42066;SDS011;27734;47.028;28.820;2022-07-29T15:23:13;13.20;;;8.60;;
42066;SDS011;27734;47.028;28.820;2022-07-29T15:25:45;14.87;;;8.37;;
42066;SDS011;27734;47.028;28.820;2022-07-29T15:28:19;15.50;;;8.90;;
42066;SDS011;27734;47.028;28.820;2022-07-29T15:33:15;17.13;;;8.27;;
42066;SDS011;27734;47.028;28.820;2022-07-29T15:35:45;12.27;;;7.87;;
42066;SDS011;27734;47.028;28.820;2022-07-29T15:38:14;18.53;;;8.73;;
42066;SDS011;27734;47.028;28.820;2022-07-29T15:40:44;15.70;;;8.47;;
42066;SDS011;27734;47.028;28.820;2022-07-29T15:43:13;12.70;;;8.20;;
42066;SDS011;27734;47.028;28.820;2022-07-29T15:45:42;17.03;;;8.40;;
42066;SDS011;27734;47.028;28.820;2022-07-29T15:48:32;16.03;;;7.57;;
42066;SDS011;27734;47.028;28.820;2022-07-29T15:51:04;13.70;;;7.70;;
42066;SDS011;27734;47.028;28.820;2022-07-29T15:53:33;13.87;;;7.67;;
42066;SDS011;27734;47.028;28.820;2022-07-29T15:56:02;12.53;;;7.17;;
42066;SDS011;27734;47.028;28.820;2022-07-29T15:58:31;13.47;;;7.67;;
42066;SDS011;27734;47.028;28.820;2022-07-29T16:01:00;14.33;;;7.57;;
42066;SDS011;27734;47.028;28.820;2022-07-29T16:03:29;13.47;;;7.20;;
42066;SDS011;27734;47.028;28.820;2022-07-29T16:05:59;10.57;;;6.07;;
42066;SDS011;27734;47.028;28.820;2022-07-29T16:08:27;13.43;;;7.03;;
42066;SDS011;27734;47.028;28.820;2022-07-29T16:10:56;13.60;;;6.97;;
42066;SDS011;27734;47.028;28.820;2022-07-29T16:13:25;16.30;;;7.20;;
42066;SDS011;27734;47.028;28.820;2022-07-29T16:15:54;12.77;;;6.57;;
42066;SDS011;27734;47.028;28.820;2022-07-29T16:18:26;12.73;;;6.40;;
42066;SDS011;27734;47.028;28.820;2022-07-29T16:20:55;14.77;;;7.37;;
42066;SDS011;27734;47.028;28.820;2022-07-29T16:23:24;15.23;;;6.57;;
42066;SDS011;27734;47.028;28.820;2022-07-29T16:25:53;12.47;;;6.40;;
42066;SDS011;27734;47.028;28.820;2022-07-29T16:28:21;11.00;;;6.30;;
42066;SDS011;27734;47.028;28.820;2022-07-29T16:30:50;11.53;;;5.97;;
42066;SDS011;27734;47.028;28.820;2022-07-29T16:33:19;12.17;;;6.60;;
42066;SDS011;27734;47.028;28.820;2022-07-29T16:35:48;13.33;;;6.90;;
42066;SDS011;27734;47.028;28.820;2022-07-29T16:38:16;13.57;;;6.40;;
42066;SDS011;27734;47.028;28.820;2022-07-29T16:40:45;13.50;;;6.33;;
42066;SDS011;27734;47.028;28.820;2022-07-29T16:43:14;12.93;;;6.20;;
42066;SDS011;27734;47.028;28.820;2022-07-29T16:45:43;11.37;;;6.13;;
42066;SDS011;27734;47.028;28.820;2022-07-29T16:48:12;13.37;;;6.10;;
42066;SDS011;27734;47.028;28.820;2022-07-29T16:50:42;11.10;;;5.77;;
42066;SDS011;27734;47.028;28.820;2022-07-29T16:53:10;16.07;;;6.30;;
42066;SDS011;27734;47.028;28.820;2022-07-29T16:55:40;15.10;;;6.20;;
42066;SDS011;27734;47.028;28.820;2022-07-29T16:58:09;12.63;;;6.03;;
42066;SDS011;27734;47.028;28.820;2022-07-29T17:00:40;10.47;;;5.87;;
42066;SDS011;27734;47.028;28.820;2022-07-29T17:03:09;12.83;;;5.57;;
42066;SDS011;27734;47.028;28.820;2022-07-29T17:05:38;10.10;;;4.90;;
42066;SDS011;27734;47.028;28.820;2022-07-29T17:08:07;11.43;;;5.83;;
42066;SDS011;27734;47.028;28.820;2022-07-29T17:10:35;10.80;;;5.70;;
42066;SDS011;27734;47.028;28.820;2022-07-29T17:13:04;8.00;;;5.20;;
42066;SDS011;27734;47.028;28.820;2022-07-29T17:15:33;9.73;;;4.90;;
42066;SDS011;27734;47.028;28.820;2022-07-29T17:18:02;10.00;;;5.10;;
42066;SDS011;27734;47.028;28.820;2022-07-29T17:20:31;8.57;;;5.00;;
42066;SDS011;27734;47.028;28.820;2022-07-29T17:23:02;10.87;;;5.60;;
42066;SDS011;27734;47.028;28.820;2022-07-29T17:25:31;10.83;;;5.37;;
42066;SDS011;27734;47.028;28.820;2022-07-29T17:28:00;11.23;;;5.30;;
42066;SDS011;27734;47.028;28.820;2022-07-29T17:30:29;18.23;;;5.70;;
42066;SDS011;27734;47.028;28.820;2022-07-29T17:32:57;11.10;;;5.97;;
42066;SDS011;27734;47.028;28.820;2022-07-29T17:35:26;12.50;;;6.20;;
42066;SDS011;27734;47.028;28.820;2022-07-29T17:38:14;12.97;;;7.33;;
42066;SDS011;27734;47.028;28.820;2022-07-29T17:40:43;17.13;;;6.40;;
42066;SDS011;27734;47.028;28.820;2022-07-29T17:43:12;11.37;;;6.40;;
42066;SDS011;27734;47.028;28.820;2022-07-29T17:45:41;12.33;;;7.10;;
42066;SDS011;27734;47.028;28.820;2022-07-29T17:48:09;13.37;;;6.87;;
42066;SDS011;27734;47.028;28.820;2022-07-29T17:50:38;11.40;;;6.53;;
42066;SDS011;27734;47.028;28.820;2022-07-29T17:53:07;17.37;;;7.30;;
42066;SDS011;27734;47.028;28.820;2022-07-29T17:55:36;17.07;;;7.50;;
42066;SDS011;27734;47.028;28.820;2022-07-29T17:58:05;15.10;;;7.63;;
42066;SDS011;27734;47.028;28.820;2022-07-29T18:00:35;15.67;;;8.50;;
42066;SDS011;27734;47.028;28.820;2022-07-29T18:03:04;18.40;;;8.33;;
42066;SDS011;27734;47.028;28.820;2022-07-29T18:05:33;16.27;;;8.20;;
42066;SDS011;27734;47.028;28.820;2022-07-29T18:08:01;19.50;;;8.40;;
42066;SDS011;27734;47.028;28.820;2022-07-29T18:10:31;21.00;;;9.50;;
42066;SDS011;27734;47.028;28.820;2022-07-29T18:13:00;19.90;;;9.93;;
42066;SDS011;27734;47.028;28.820;2022-07-29T18:15:29;21.80;;;9.97;;
42066;SDS011;27734;47.028;28.820;2022-07-29T18:17:58;18.00;;;9.53;;
42066;SDS011;27734;47.028;28.820;2022-07-29T18:20:27;22.27;;;10.03;;
42066;SDS011;27734;47.028;28.820;2022-07-29T18:22:57;21.10;;;10.23;;
42066;SDS011;27734;47.028;28.820;2022-07-29T18:25:26;18.00;;;9.43;;
42066;SDS011;27734;47.028;28.820;2022-07-29T18:27:58;12.77;;;7.00;;
42066;SDS011;27734;47.028;28.820;2022-07-29T18:30:27;11.87;;;6.30;;
42066;SDS011;27734;47.028;28.820;2022-07-29T18:32:59;15.10;;;6.60;;
42066;SDS011;27734;47.028;28.820;2022-07-29T18:35:28;16.63;;;7.03;;
42066;SDS011;27734;47.028;28.820;2022-07-29T18:37:57;11.73;;;6.93;;
42066;SDS011;27734;47.028;28.820;2022-07-29T18:40:25;16.37;;;7.00;;
42066;SDS011;27734;47.028;28.820;2022-07-29T18:42:54;15.60;;;7.30;;
42066;SDS011;27734;47.028;28.820;2022-07-29T18:45:23;12.77;;;6.80;;
42066;SDS011;27734;47.028;28.820;2022-07-29T18:47:52;12.07;;;6.53;;